createdAt,value
2018-12-21T00:01:09.569Z,5.90
2018-12-21T00:03:38.401Z,5.90
2018-12-21T00:06:07.547Z,5.90
2018-12-21T00:08:36.124Z,5.90
2018-12-21T00:11:04.976Z,5.90
2018-12-21T00:13:33.935Z,5.90
2018-12-21T00:16:02.350Z,5.90
2018-12-21T00:18:31.422Z,5.90
2018-12-21T00:21:00.110Z,5.80
2018-12-21T00:23:29.617Z,5.90
2018-12-21T00:25:58.210Z,5.90
2018-12-21T00:28:27.193Z,5.80
2018-12-21T00:31:01.410Z,5.80
2018-12-21T00:33:35.628Z,5.80
2018-12-21T00:36:09.867Z,5.80
2018-12-21T00:38:43.770Z,5.80
2018-12-21T00:41:14.222Z,5.70
2018-12-21T00:43:55.360Z,5.70
2018-12-21T00:46:30.790Z,5.80
2018-12-21T00:48:59.285Z,5.80
2018-12-21T00:51:30.341Z,5.80
2018-12-21T00:53:59.654Z,5.80
2018-12-21T00:56:28.339Z,5.80
2018-12-21T00:58:56.944Z,5.80
2018-12-21T01:01:25.770Z,5.80
2018-12-21T01:03:55.750Z,5.90
2018-12-21T01:06:24.571Z,5.90
2018-12-21T01:08:52.990Z,5.90
2018-12-21T01:11:21.402Z,5.90
2018-12-21T01:13:50.244Z,5.90
2018-12-21T01:16:20.072Z,5.90
2018-12-21T01:18:48.768Z,6.00
2018-12-21T01:21:17.364Z,6.00
2018-12-21T01:23:46.966Z,6.10
2018-12-21T01:26:15.456Z,6.10
2018-12-21T01:28:44.511Z,6.10
2018-12-21T01:31:13.361Z,6.00
2018-12-21T01:33:42.290Z,6.10
2018-12-21T01:36:11.051Z,6.10
2018-12-21T01:38:39.729Z,6.20
2018-12-21T01:41:08.222Z,6.20
2018-12-21T01:43:37.164Z,6.30
2018-12-21T01:46:05.701Z,6.30
2018-12-21T01:48:34.411Z,6.30
2018-12-21T01:51:03.830Z,6.30
2018-12-21T01:53:32.162Z,6.30
2018-12-21T01:56:01.557Z,6.20
2018-12-21T01:58:30.453Z,6.20
2018-12-21T02:00:59.144Z,6.20
2018-12-21T02:03:27.610Z,6.20
2018-12-21T02:05:56.905Z,6.20
2018-12-21T02:08:26.380Z,6.20
2018-12-21T02:10:56.954Z,6.20
2018-12-21T02:13:26.141Z,6.20
2018-12-21T02:15:55.656Z,6.20
2018-12-21T02:18:24.010Z,6.20
2018-12-21T02:20:52.679Z,6.20
2018-12-21T02:23:21.347Z,6.20
2018-12-21T02:25:49.856Z,6.30
2018-12-21T02:28:18.215Z,6.30
2018-12-21T02:30:46.859Z,6.40
2018-12-21T02:33:15.713Z,6.40
2018-12-21T02:35:44.295Z,6.40
2018-12-21T02:38:12.821Z,6.30
2018-12-21T02:40:42.392Z,6.30
2018-12-21T02:43:11.778Z,6.30
2018-12-21T02:45:41.226Z,6.30
2018-12-21T02:48:09.647Z,6.20
2018-12-21T02:50:39.197Z,6.20
2018-12-21T02:53:07.738Z,6.30
2018-12-21T02:55:36.189Z,6.20
2018-12-21T02:58:05.029Z,6.20
2018-12-21T03:00:33.460Z,6.20
2018-12-21T03:03:02.643Z,6.10
2018-12-21T03:05:31.405Z,6.20
2018-12-21T03:08:00.744Z,6.10
2018-12-21T03:10:29.190Z,6.10
2018-12-21T03:12:58.878Z,6.10
2018-12-21T03:15:27.570Z,6.10
2018-12-21T03:17:56.475Z,6.10
2018-12-21T03:20:25.246Z,6.00
2018-12-21T03:22:53.916Z,6.00
2018-12-21T03:25:22.663Z,6.00
2018-12-21T03:27:51.034Z,6.00
2018-12-21T03:30:19.579Z,6.00
2018-12-21T03:32:48.091Z,6.00
2018-12-21T03:35:16.850Z,6.00
2018-12-21T03:37:45.687Z,6.00
2018-12-21T03:40:14.326Z,6.00
2018-12-21T03:42:42.912Z,6.00
2018-12-21T03:45:11.870Z,6.00
2018-12-21T03:47:40.420Z,6.00
2018-12-21T03:50:09.181Z,6.00
2018-12-21T03:52:37.818Z,6.00
2018-12-21T03:55:07.045Z,6.00
2018-12-21T03:57:35.803Z,6.00
2018-12-21T04:00:05.849Z,6.00
2018-12-21T04:02:36.621Z,6.00
2018-12-21T04:05:05.575Z,6.10
2018-12-21T04:07:34.123Z,6.00
2018-12-21T04:10:02.715Z,6.10
2018-12-21T04:12:31.191Z,6.10
2018-12-21T04:15:00.277Z,6.10
2018-12-21T04:17:29.055Z,6.20
2018-12-21T04:19:58.482Z,6.20
2018-12-21T04:22:33.926Z,6.20
2018-12-21T04:24:57.528Z,6.20
2018-12-21T04:27:25.996Z,6.30
2018-12-21T04:29:54.452Z,6.30
2018-12-21T04:32:24.051Z,6.30
2018-12-21T04:34:52.727Z,6.30
2018-12-21T04:37:21.083Z,6.40
2018-12-21T04:39:49.642Z,6.40
2018-12-21T04:42:18.118Z,6.40
2018-12-21T04:44:47.013Z,6.40
2018-12-21T04:47:15.483Z,6.40
2018-12-21T04:49:44.465Z,6.40
2018-12-21T04:52:13.518Z,6.40
2018-12-21T04:54:42.109Z,6.50
2018-12-21T04:57:10.651Z,6.50
2018-12-21T04:59:39.438Z,6.50
2018-12-21T05:02:08.894Z,6.50
2018-12-21T05:04:37.370Z,6.50
2018-12-21T05:07:12.283Z,6.50
2018-12-21T05:09:36.454Z,6.60
2018-12-21T05:12:05.604Z,6.60
2018-12-21T05:14:35.032Z,6.70
2018-12-21T05:17:03.616Z,6.70
2018-12-21T05:19:32.177Z,6.70
2018-12-21T05:22:00.636Z,6.80
2018-12-21T05:24:29.062Z,6.80
2018-12-21T05:26:57.572Z,6.80
2018-12-21T05:29:27.059Z,6.80
2018-12-21T05:31:55.488Z,6.90
2018-12-21T05:34:23.995Z,6.90
2018-12-21T05:36:52.172Z,6.90
2018-12-21T05:39:20.444Z,6.80
2018-12-21T05:41:49.007Z,6.80
2018-12-21T05:44:17.814Z,6.90
2018-12-21T05:46:46.726Z,6.90
2018-12-21T05:49:16.094Z,6.90
2018-12-21T05:51:44.773Z,6.80
2018-12-21T05:54:13.467Z,6.80
2018-12-21T05:56:41.991Z,6.90
2018-12-21T05:59:10.615Z,6.90
2018-12-21T06:01:39.365Z,6.90
2018-12-21T06:04:08.189Z,6.90
2018-12-21T06:06:36.891Z,7.00
2018-12-21T06:09:07.621Z,7.00
2018-12-21T06:11:36.636Z,7.00
2018-12-21T06:14:05.474Z,6.90
2018-12-21T06:16:34.046Z,6.90
2018-12-21T06:19:02.757Z,6.90
2018-12-21T06:21:31.241Z,6.80
2018-12-21T06:23:59.730Z,6.80
2018-12-21T06:26:35.051Z,6.80
2018-12-21T06:29:03.701Z,6.80
2018-12-21T06:31:32.085Z,6.70
2018-12-21T06:34:00.642Z,6.80
2018-12-21T06:36:29.085Z,6.80
2018-12-21T06:38:57.458Z,6.90
2018-12-21T06:41:26.268Z,6.90
2018-12-21T06:43:55.934Z,6.90
2018-12-21T06:46:24.367Z,6.90
2018-12-21T06:48:53.437Z,6.90
2018-12-21T06:51:22.107Z,6.90
2018-12-21T06:53:50.434Z,7.00
2018-12-21T06:56:18.820Z,6.90
2018-12-21T06:58:47.580Z,6.90
2018-12-21T07:01:16.106Z,6.90
2018-12-21T07:03:44.527Z,6.90
2018-12-21T07:06:14.134Z,6.90
2018-12-21T07:08:42.707Z,6.90
2018-12-21T07:11:11.310Z,6.80
2018-12-21T07:13:39.635Z,6.80
2018-12-21T07:16:08.194Z,6.80
2018-12-21T07:18:36.687Z,6.70
2018-12-21T07:21:05.170Z,6.70
2018-12-21T07:23:33.498Z,6.70
2018-12-21T07:26:02.494Z,6.60
2018-12-21T07:28:31.032Z,6.60
2018-12-21T07:30:59.386Z,6.60
2018-12-21T07:33:27.658Z,6.60
2018-12-21T07:35:56.171Z,6.60
2018-12-21T07:38:24.411Z,6.50
2018-12-21T07:40:52.939Z,6.50
2018-12-21T07:43:21.136Z,6.50
2018-12-21T07:45:49.622Z,6.50
2018-12-21T07:48:18.055Z,6.50
2018-12-21T07:50:46.417Z,6.50
2018-12-21T07:53:14.886Z,6.50
2018-12-21T07:55:43.727Z,6.50
2018-12-21T07:58:11.999Z,6.60
2018-12-21T08:00:40.250Z,6.50
2018-12-21T08:03:08.565Z,6.40
2018-12-21T08:05:37.407Z,6.40
2018-12-21T08:08:05.764Z,6.40
2018-12-21T08:10:34.069Z,6.40
2018-12-21T08:13:02.265Z,6.40
2018-12-21T08:15:30.439Z,6.40
2018-12-21T08:17:58.649Z,6.30
2018-12-21T08:20:27.095Z,6.20
2018-12-21T08:22:55.490Z,6.30
2018-12-21T08:25:23.799Z,6.40
2018-12-21T08:27:51.994Z,6.40
2018-12-21T08:30:20.402Z,6.40
2018-12-21T08:32:48.593Z,6.40
2018-12-21T08:35:16.779Z,6.40
2018-12-21T08:37:45.237Z,6.40
2018-12-21T08:40:13.521Z,6.40
2018-12-21T08:42:41.826Z,6.40
2018-12-21T08:45:10.477Z,6.50
2018-12-21T08:47:38.822Z,6.50
2018-12-21T08:50:09.826Z,6.60
2018-12-21T08:52:38.055Z,6.50
2018-12-21T08:55:07.152Z,6.60
2018-12-21T08:57:35.782Z,6.70
2018-12-21T09:00:05.003Z,6.70
2018-12-21T09:02:33.261Z,6.70
2018-12-21T09:05:01.556Z,6.70
2018-12-21T09:07:29.951Z,6.70
2018-12-21T09:09:58.218Z,6.70
2018-12-21T09:12:26.533Z,6.70
2018-12-21T09:14:55.177Z,6.70
2018-12-21T09:17:23.632Z,6.70
2018-12-21T09:19:51.979Z,6.80
2018-12-21T09:22:20.279Z,6.80
2018-12-21T09:24:48.508Z,6.80
2018-12-21T09:27:16.826Z,6.90
2018-12-21T09:29:45.099Z,6.80
2018-12-21T09:32:13.450Z,6.80
2018-12-21T09:34:41.714Z,6.90
2018-12-21T09:37:10.173Z,6.90
2018-12-21T09:39:38.450Z,6.80
2018-12-21T09:42:06.807Z,6.80
2018-12-21T09:44:35.303Z,6.90
2018-12-21T09:47:04.382Z,6.90
2018-12-21T09:49:32.660Z,6.90
2018-12-21T09:52:01.021Z,6.90
2018-12-21T09:54:29.498Z,7.00
2018-12-21T09:56:58.072Z,7.00
2018-12-21T09:59:26.588Z,7.10
2018-12-21T10:01:55.055Z,7.20
2018-12-21T10:04:23.562Z,7.20
2018-12-21T10:06:52.267Z,7.30
2018-12-21T10:09:20.738Z,7.30
2018-12-21T10:11:49.261Z,7.30
2018-12-21T10:14:17.661Z,7.30
2018-12-21T10:16:46.881Z,7.20
2018-12-21T10:19:15.439Z,7.20
2018-12-21T10:21:43.642Z,7.10
2018-12-21T10:24:18.526Z,7.10
2018-12-21T10:26:42.337Z,7.20
2018-12-21T10:29:10.602Z,7.20
2018-12-21T10:31:38.799Z,7.20
2018-12-21T10:34:06.981Z,7.30
2018-12-21T10:36:35.427Z,7.40
2018-12-21T10:39:05.416Z,7.50
2018-12-21T10:41:33.886Z,7.40
2018-12-21T10:44:02.291Z,7.50
2018-12-21T10:46:30.498Z,7.50
2018-12-21T10:48:58.848Z,7.50
2018-12-21T10:51:27.270Z,7.50
2018-12-21T10:53:55.891Z,7.60
2018-12-21T10:56:24.156Z,7.60
2018-12-21T10:58:52.735Z,7.60
2018-12-21T11:01:21.732Z,7.60
2018-12-21T11:03:49.949Z,7.60
2018-12-21T11:06:18.692Z,7.70
2018-12-21T11:08:47.236Z,7.70
2018-12-21T11:11:15.672Z,7.70
2018-12-21T11:13:44.063Z,7.70
2018-12-21T11:16:12.734Z,7.70
2018-12-21T11:18:41.430Z,7.70
2018-12-21T11:21:09.956Z,7.80
2018-12-21T11:23:38.311Z,7.80
2018-12-21T11:26:06.802Z,7.80
2018-12-21T11:28:35.070Z,7.80
2018-12-21T11:31:03.459Z,7.80
2018-12-21T11:33:31.833Z,7.70
2018-12-21T11:36:00.246Z,7.70
2018-12-21T11:38:28.479Z,7.70
2018-12-21T11:40:56.761Z,7.80
2018-12-21T11:43:25.149Z,7.80
2018-12-21T11:45:53.477Z,7.80
2018-12-21T11:48:21.689Z,7.70
2018-12-21T11:50:50.078Z,7.70
2018-12-21T11:53:18.435Z,7.70
2018-12-21T11:55:46.937Z,7.70
2018-12-21T11:58:15.299Z,7.70
2018-12-21T12:00:43.613Z,7.60
2018-12-21T12:03:11.807Z,7.60
2018-12-21T12:05:40.391Z,7.70
2018-12-21T12:08:08.675Z,7.60
2018-12-21T12:10:36.879Z,7.70
2018-12-21T12:13:05.238Z,7.70
2018-12-21T12:15:33.554Z,7.80
2018-12-21T12:18:01.812Z,7.90
2018-12-21T12:20:30.059Z,7.90
2018-12-21T12:22:58.387Z,8.00
2018-12-21T12:25:26.783Z,8.00
2018-12-21T12:27:55.255Z,8.00
2018-12-21T12:30:23.504Z,8.00
2018-12-21T12:32:51.879Z,7.90
2018-12-21T12:35:20.199Z,8.00
2018-12-21T12:37:48.415Z,7.90
2018-12-21T12:40:16.746Z,7.90
2018-12-21T12:42:46.762Z,8.00
2018-12-21T12:45:15.050Z,8.10
2018-12-21T12:47:43.281Z,8.10
2018-12-21T12:50:11.547Z,8.10
2018-12-21T12:52:39.866Z,8.10
2018-12-21T12:55:08.362Z,8.20
2018-12-21T12:57:36.549Z,8.20
2018-12-21T13:00:06.967Z,8.20
2018-12-21T13:02:35.317Z,8.30
2018-12-21T13:05:04.018Z,8.30
2018-12-21T13:07:32.475Z,8.20
2018-12-21T13:10:00.870Z,8.30
2018-12-21T13:12:29.137Z,8.30
2018-12-21T13:14:57.497Z,8.40
2018-12-21T13:17:25.890Z,8.40
2018-12-21T13:19:54.181Z,8.50
2018-12-21T13:22:22.674Z,8.60
2018-12-21T13:24:51.165Z,8.60
2018-12-21T13:27:19.544Z,8.60
2018-12-21T13:29:47.714Z,8.70
2018-12-21T13:32:15.930Z,8.70
2018-12-21T13:34:44.407Z,8.70
2018-12-21T13:37:12.710Z,8.70
2018-12-21T13:39:40.921Z,8.70
2018-12-21T13:42:09.111Z,8.70
2018-12-21T13:44:37.574Z,8.70
2018-12-21T13:47:05.835Z,8.70
2018-12-21T13:49:34.207Z,8.70
2018-12-21T13:52:02.602Z,8.70
2018-12-21T13:54:31.083Z,8.70
2018-12-21T13:56:59.462Z,8.70
2018-12-21T13:59:27.705Z,8.70
2018-12-21T14:01:56.311Z,8.70
2018-12-21T14:04:24.924Z,8.70
2018-12-21T14:06:53.819Z,8.70
2018-12-21T14:09:22.287Z,8.60
2018-12-21T14:11:50.485Z,8.60
2018-12-21T14:14:18.676Z,8.60
2018-12-21T14:16:46.939Z,8.60
2018-12-21T14:19:15.146Z,8.70
2018-12-21T14:21:43.559Z,8.60
2018-12-21T14:24:18.430Z,8.70
2018-12-21T14:26:47.005Z,8.70
2018-12-21T14:29:15.239Z,8.70
2018-12-21T14:31:43.555Z,8.80
2018-12-21T14:34:12.704Z,8.90
2018-12-21T14:36:41.031Z,8.90
2018-12-21T14:39:09.378Z,8.90
2018-12-21T14:41:41.648Z,8.90
2018-12-21T14:44:10.126Z,8.90
2018-12-21T14:46:38.603Z,8.90
2018-12-21T14:49:07.102Z,9.00
2018-12-21T14:51:35.320Z,9.00
2018-12-21T14:54:03.766Z,9.00
2018-12-21T14:56:32.078Z,9.00
2018-12-21T14:59:00.366Z,9.10
2018-12-21T15:01:28.703Z,9.10
2018-12-21T15:03:57.275Z,9.20
2018-12-21T15:06:25.624Z,9.20
2018-12-21T15:08:53.950Z,9.20
2018-12-21T15:11:22.595Z,9.10
2018-12-21T15:13:50.935Z,9.10
2018-12-21T15:16:19.277Z,9.00
2018-12-21T15:18:47.646Z,9.00
2018-12-21T15:21:16.050Z,8.90
2018-12-21T15:23:44.334Z,8.90
2018-12-21T15:26:12.739Z,8.90
2018-12-21T15:28:41.081Z,8.90
2018-12-21T15:31:09.391Z,9.00
2018-12-21T15:33:37.815Z,9.00
2018-12-21T15:36:06.882Z,8.90
2018-12-21T15:38:35.490Z,9.00
2018-12-21T15:41:03.977Z,9.00
2018-12-21T15:43:32.551Z,9.00
2018-12-21T15:46:01.268Z,9.00
2018-12-21T15:48:30.151Z,9.10
2018-12-21T15:50:58.807Z,9.10
2018-12-21T15:53:27.157Z,9.20
2018-12-21T15:55:55.629Z,9.20
2018-12-21T15:58:24.290Z,9.20
2018-12-21T16:00:53.363Z,9.20
2018-12-21T16:03:22.507Z,9.30
2018-12-21T16:05:50.874Z,9.30
2018-12-21T16:08:20.443Z,9.30
2018-12-21T16:10:49.181Z,9.30
2018-12-21T16:13:17.490Z,9.30
2018-12-21T16:15:45.763Z,9.30
2018-12-21T16:18:14.174Z,9.30
2018-12-21T16:20:42.466Z,9.40
2018-12-21T16:23:10.899Z,9.40
2018-12-21T16:25:39.291Z,9.40
2018-12-21T16:28:07.570Z,9.40
2018-12-21T16:30:36.143Z,9.50
2018-12-21T16:33:04.645Z,9.50
2018-12-21T16:35:33.099Z,9.50
2018-12-21T16:38:01.424Z,9.50
2018-12-21T16:40:29.866Z,9.50
2018-12-21T16:42:58.378Z,9.50
2018-12-21T16:45:27.668Z,9.50
2018-12-21T16:47:55.995Z,9.50
2018-12-21T16:50:25.306Z,9.60
2018-12-21T16:52:53.962Z,9.70
2018-12-21T16:55:22.658Z,9.70
2018-12-21T16:57:57.643Z,9.70
2018-12-21T17:00:26.242Z,9.60
2018-12-21T17:02:55.883Z,9.70
2018-12-21T17:05:24.411Z,9.70
2018-12-21T17:07:53.743Z,9.70
2018-12-21T17:10:23.615Z,9.70
2018-12-21T17:12:51.998Z,9.70
2018-12-21T17:15:21.429Z,9.70
2018-12-21T17:17:49.718Z,9.70
2018-12-21T17:20:18.508Z,9.70
2018-12-21T17:22:47.955Z,9.70
2018-12-21T17:25:17.402Z,9.70
2018-12-21T17:27:45.994Z,9.80
2018-12-21T17:30:14.676Z,9.80
2018-12-21T17:32:44.701Z,9.80
2018-12-21T17:35:13.237Z,9.80
2018-12-21T17:37:41.718Z,9.80
2018-12-21T17:40:11.271Z,9.70
2018-12-21T17:42:39.698Z,9.80
2018-12-21T17:45:10.342Z,9.80
2018-12-21T17:47:38.969Z,9.80
2018-12-21T17:50:09.250Z,9.80
2018-12-21T17:52:37.675Z,9.90
2018-12-21T17:55:07.725Z,9.90
2018-12-21T17:57:36.283Z,9.90
2018-12-21T18:00:09.621Z,9.90
2018-12-21T18:02:38.321Z,9.90
2018-12-21T18:05:07.395Z,9.90
2018-12-21T18:07:36.198Z,9.90
2018-12-21T18:10:05.593Z,9.80
2018-12-21T18:12:34.014Z,9.80
2018-12-21T18:15:02.669Z,9.80
2018-12-21T18:17:32.508Z,9.80
2018-12-21T18:20:01.809Z,9.80
2018-12-21T18:22:31.426Z,9.90
2018-12-21T18:25:07.644Z,9.90
2018-12-21T18:27:36.923Z,9.90
2018-12-21T18:30:10.802Z,9.90
2018-12-21T18:32:40.107Z,9.90
2018-12-21T18:35:12.876Z,9.80
2018-12-21T18:38:02.358Z,9.80
2018-12-21T18:40:31.969Z,9.80
2018-12-21T18:43:00.676Z,9.80
2018-12-21T18:45:29.069Z,9.80
2018-12-21T18:47:57.375Z,9.90
2018-12-21T18:50:27.111Z,10.00
2018-12-21T18:52:55.966Z,10.00
2018-12-21T18:55:24.809Z,10.10
2018-12-21T18:57:53.273Z,10.00
2018-12-21T19:00:21.852Z,10.00
2018-12-21T19:02:50.702Z,10.10
2018-12-21T19:05:19.697Z,10.10
2018-12-21T19:07:48.159Z,10.20
2018-12-21T19:10:16.491Z,10.20
2018-12-21T19:12:45.019Z,10.20
2018-12-21T19:15:13.380Z,10.20
2018-12-21T19:17:42.034Z,10.20
2018-12-21T19:20:12.169Z,10.20
2018-12-21T19:22:40.783Z,10.20
2018-12-21T19:25:10.599Z,10.20
2018-12-21T19:27:39.559Z,10.20
2018-12-21T19:30:10.519Z,10.20
2018-12-21T19:32:40.074Z,10.20
2018-12-21T19:35:09.494Z,10.20
2018-12-21T19:37:38.220Z,10.20
2018-12-21T19:40:08.314Z,10.20
2018-12-21T19:42:36.708Z,10.30
2018-12-21T19:45:06.744Z,10.20
2018-12-21T19:47:35.079Z,10.20
2018-12-21T19:50:03.934Z,10.20
2018-12-21T19:52:32.255Z,10.20
2018-12-21T19:55:08.437Z,10.20
2018-12-21T19:57:36.991Z,10.30
2018-12-21T20:00:05.796Z,10.30
2018-12-21T20:02:34.506Z,10.30
2018-12-21T20:05:03.307Z,10.30
2018-12-21T20:07:31.870Z,10.20
2018-12-21T20:10:00.185Z,10.30
2018-12-21T20:12:28.479Z,10.30
2018-12-21T20:14:56.831Z,10.20
2018-12-21T20:17:25.562Z,10.20
2018-12-21T20:19:54.013Z,10.20
2018-12-21T20:22:22.638Z,10.20
2018-12-21T20:24:51.057Z,10.20
2018-12-21T20:27:20.641Z,10.20
2018-12-21T20:29:49.019Z,10.30
2018-12-21T20:32:17.440Z,10.30
2018-12-21T20:34:46.137Z,10.20
2018-12-21T20:37:14.494Z,10.30
2018-12-21T20:39:46.108Z,10.30
2018-12-21T20:42:14.883Z,10.30
2018-12-21T20:44:43.285Z,10.30
2018-12-21T20:47:12.618Z,10.30
2018-12-21T20:49:40.922Z,10.30
2018-12-21T20:52:09.410Z,10.30
2018-12-21T20:54:38.225Z,10.30
2018-12-21T20:57:09.501Z,10.30
2018-12-21T20:59:38.391Z,10.30
2018-12-21T21:02:06.771Z,10.30
2018-12-21T21:04:35.279Z,10.30
2018-12-21T21:07:03.862Z,10.30
2018-12-21T21:09:32.438Z,10.40
2018-12-21T21:12:00.825Z,10.30
2018-12-21T21:14:29.307Z,10.30
2018-12-21T21:16:59.165Z,10.30
2018-12-21T21:19:30.440Z,10.30
2018-12-21T21:21:59.037Z,10.30
2018-12-21T21:24:27.445Z,10.30
2018-12-21T21:26:56.066Z,10.30
2018-12-21T21:29:25.139Z,10.30
2018-12-21T21:31:53.941Z,10.20
2018-12-21T21:34:22.329Z,10.10
2018-12-21T21:36:51.018Z,10.10
2018-12-21T21:39:19.701Z,10.10
2018-12-21T21:41:48.449Z,10.00
2018-12-21T21:44:20.358Z,10.00
2018-12-21T21:46:49.093Z,10.00
2018-12-21T21:49:19.540Z,10.00
2018-12-21T21:51:48.251Z,9.90
2018-12-21T21:54:16.787Z,9.90
2018-12-21T21:56:45.244Z,9.80
2018-12-21T21:59:13.634Z,9.90
2018-12-21T22:01:42.133Z,9.90
2018-12-21T22:04:10.443Z,10.00
2018-12-21T22:06:39.384Z,10.00
2018-12-21T22:09:07.859Z,10.00
2018-12-21T22:11:36.208Z,10.00
2018-12-21T22:14:04.626Z,10.00
2018-12-21T22:16:33.050Z,10.00
2018-12-21T22:19:01.719Z,10.00
2018-12-21T22:21:30.216Z,10.10
2018-12-21T22:23:58.910Z,10.10
2018-12-21T22:26:27.564Z,10.10
2018-12-21T22:28:56.042Z,10.10
2018-12-21T22:31:24.478Z,10.10
2018-12-21T22:33:52.958Z,10.10
2018-12-21T22:36:21.244Z,10.00
2018-12-21T22:38:49.570Z,10.00
2018-12-21T22:41:18.055Z,10.00
2018-12-21T22:43:46.833Z,9.90
2018-12-21T22:46:15.334Z,9.90
2018-12-21T22:48:43.861Z,9.90
2018-12-21T22:51:12.783Z,9.90
2018-12-21T22:53:41.043Z,9.80
2018-12-21T22:56:09.546Z,9.80
2018-12-21T22:58:38.047Z,9.80
2018-12-21T23:01:06.370Z,9.70
2018-12-21T23:03:34.775Z,9.70
2018-12-21T23:06:03.366Z,9.60
2018-12-21T23:08:31.803Z,9.60
2018-12-21T23:11:00.293Z,9.70
2018-12-21T23:13:28.835Z,9.70
2018-12-21T23:15:57.306Z,9.70
2018-12-21T23:18:25.544Z,9.70
2018-12-21T23:20:54.120Z,9.70
2018-12-21T23:23:22.510Z,9.80
2018-12-21T23:25:50.867Z,9.80
2018-12-21T23:28:19.468Z,9.80
2018-12-21T23:30:48.118Z,9.80
2018-12-21T23:33:16.575Z,9.90
2018-12-21T23:35:45.098Z,9.90
2018-12-21T23:38:13.890Z,9.90
2018-12-21T23:40:42.316Z,10.00
2018-12-21T23:43:10.907Z,10.00
2018-12-21T23:45:39.501Z,10.00
2018-12-21T23:48:08.066Z,10.00
2018-12-21T23:50:36.583Z,10.10
2018-12-21T23:53:05.379Z,10.10
2018-12-21T23:55:33.799Z,10.10
2018-12-21T23:58:02.139Z,10.10
